Time;durP1;ratioP1;P1;durP2;ratioP2;P2;SDS_P1;SDS_P2;PMS_P1;PMS_P2;Temp;Humidity;BMP_temperature;BMP_pressure;BME280_temperature;BME280_humidity;BME280_pressure;Samples;Min_cycle;Max_cycle;Signal;HPM_P1;HPM_P2
2023/12/02 00:01:00;;;;;;;14.40;8.80;;;;;;;6.12;80.26;98458.33;79402;1301;3011569;-62
2023/12/02 00:03:28;;;;;;;12.20;7.80;;;;;;;6.12;80.52;98465.27;78456;1301;3056713;-65
2023/12/02 00:05:56;;;;;;;13.30;9.10;;;;;;;5.93;80.03;98463.90;79578;1296;3012940;-63
2023/12/02 00:08:23;;;;;;;12.30;8.30;;;;;;;5.71;80.16;98470.90;79401;1301;3011763;-64
2023/12/02 00:10:51;;;;;;;11.90;8.20;;;;;;;5.51;80.95;98466.11;78157;1300;3053262;-63
2023/12/02 00:13:18;;;;;;;14.10;9.00;;;;;;;5.39;81.51;98461.73;79710;1302;3013786;-63
2023/12/02 00:15:44;;;;;;;14.60;9.30;;;;;;;5.27;82.15;98459.26;79587;1301;3011614;-64
2023/12/02 00:18:12;;;;;;;13.80;9.90;;;;;;;5.25;82.74;98455.39;78216;1296;3025525;-64
2023/12/02 00:20:39;;;;;;;15.40;9.90;;;;;;;5.15;82.71;98467.73;79670;1301;3013084;-64
2023/12/02 00:23:06;;;;;;;13.80;9.30;;;;;;;5.06;82.89;98481.42;79564;1301;3013414;-64
2023/12/02 00:25:34;;;;;;;10.80;6.90;;;;;;;5.05;83.03;98489.11;78203;1300;3028837;-64
2023/12/02 00:28:01;;;;;;;14.60;8.10;;;;;;;5.47;81.93;98504.02;79549;1301;3020629;-63
2023/12/02 00:30:28;;;;;;;19.70;10.30;;;;;;;5.87;80.27;98517.65;79512;1298;3011649;-64
2023/12/02 00:32:56;;;;;;;20.90;10.40;;;;;;;5.97;79.91;98525.08;78437;1301;3026121;-62
2023/12/02 00:35:23;;;;;;;22.20;10.80;;;;;;;5.94;80.12;98521.92;79454;1301;3013083;-63
2023/12/02 00:37:49;;;;;;;20.40;11.40;;;;;;;5.64;80.19;98486.75;79782;1296;3011554;-62
2023/12/02 00:40:18;;;;;;;20.00;11.30;;;;;;;5.43;81.36;98486.70;78230;1301;3028694;-62
2023/12/02 00:42:45;;;;;;;20.60;11.80;;;;;;;5.30;81.95;98479.08;79545;1296;3018496;-66
2023/12/02 00:45:12;;;;;;;20.00;11.90;;;;;;;5.20;82.64;98481.02;79515;1301;3011908;-60
2023/12/02 00:47:40;;;;;;;21.10;11.40;;;;;;;5.07;82.89;98485.86;78348;1301;3028506;-61
2023/12/02 00:50:07;;;;;;;19.50;11.50;;;;;;;4.99;83.36;98492.73;79558;1301;3018628;-61
2023/12/02 00:52:34;;;;;;;22.50;12.80;;;;;;;4.95;83.85;98480.77;79595;1296;3012889;-60
2023/12/02 00:55:03;;;;;;;15.30;9.10;;;;;;;4.89;84.13;98468.29;78107;1301;3051136;-62
2023/12/02 00:57:30;;;;;;;17.50;11.20;;;;;;;5.38;83.48;98468.39;79458;1301;3013532;-62
2023/12/02 00:59:57;;;;;;;18.10;10.80;;;;;;;5.93;80.75;98474.20;79379;1301;3012617;-61
2023/12/02 01:02:25;;;;;;;18.50;10.70;;;;;;;5.98;79.67;98485.73;78236;1301;3056036;-62
2023/12/02 01:04:51;;;;;;;17.30;11.30;;;;;;;5.78;80.08;98489.48;79655;1309;3013620;-60
2023/12/02 01:07:18;;;;;;;20.40;12.00;;;;;;;5.77;80.93;98494.91;79415;1297;3013166;-62
2023/12/02 01:09:47;;;;;;;19.10;12.50;;;;;;;5.60;80.68;98493.73;78375;1302;3028725;-63
2023/12/02 01:12:14;;;;;;;19.80;12.90;;;;;;;5.43;81.10;98498.19;79486;1296;3013111;-63
2023/12/02 01:14:40;;;;;;;23.80;13.60;;;;;;;5.23;81.29;98492.64;79366;1302;3011146;-62
2023/12/02 01:17:09;;;;;;;22.50;13.60;;;;;;;5.14;81.79;98474.54;78489;1295;3025515;-61
2023/12/02 01:19:35;;;;;;;22.70;13.50;;;;;;;5.06;82.24;98477.41;79453;1301;3013333;-62
2023/12/02 01:22:03;;;;;;;29.70;15.80;;;;;;;4.95;82.39;98475.42;79353;1301;3011939;-63
2023/12/02 01:24:31;;;;;;;31.80;16.30;;;;;;;4.81;82.65;98469.53;78289;1301;3052897;-61
2023/12/02 01:26:58;;;;;;;31.50;13.10;;;;;;;4.78;83.22;98470.55;79556;1295;3013445;-62
2023/12/02 01:29:25;;;;;;;28.90;14.30;;;;;;;5.19;82.22;98469.25;79355;1300;3011866;-63
2023/12/02 01:31:53;;;;;;;29.20;14.00;;;;;;;5.76;80.65;98464.56;78015;1296;3026063;-63
2023/12/02 01:34:19;;;;;;;31.50;15.00;;;;;;;5.86;79.98;98459.29;79618;1301;3021228;-62
2023/12/02 01:36:46;;;;;;;27.30;13.50;;;;;;;5.88;80.01;98455.36;79448;1301;3011887;-62
2023/12/02 01:39:14;;;;;;;26.40;14.30;;;;;;;5.68;79.58;98457.52;78409;1300;3026385;-62
2023/12/02 01:41:41;;;;;;;24.80;12.90;;;;;;;5.54;79.96;98447.34;79560;1301;3013035;-62
2023/12/02 01:44:11;;;;;;;25.00;12.40;;;;;;;5.46;80.22;98446.05;79597;1308;3011919;-62
2023/12/02 01:46:39;;;;;;;22.20;10.80;;;;;;;5.31;79.98;98445.16;78294;1299;3056276;-62
2023/12/02 01:49:06;;;;;;;21.80;11.10;;;;;;;5.13;80.12;98449.75;79555;1296;3014890;-64
2023/12/02 01:51:33;;;;;;;19.40;10.00;;;;;;;4.90;80.79;98457.79;79734;1296;3011445;-61
2023/12/02 01:54:02;;;;;;;18.50;10.20;;;;;;;4.82;80.97;98462.20;78306;1300;3053693;-65
2023/12/02 01:56:29;;;;;;;18.00;9.30;;;;;;;4.65;81.46;98464.32;79773;1298;3012876;-60
2023/12/02 01:58:56;;;;;;;15.00;9.60;;;;;;;4.59;82.27;98460.82;79637;1295;3011734;-64
2023/12/02 02:01:24;;;;;;;13.00;7.00;;;;;;;4.62;82.28;98465.84;78714;1297;3056733;-61
2023/12/02 02:03:51;;;;;;;14.70;8.10;;;;;;;5.09;81.12;98474.11;79817;1298;3019238;-61
2023/12/02 02:06:18;;;;;;;15.00;8.60;;;;;;;5.64;78.99;98467.81;79619;1298;3011975;-62
2023/12/02 02:08:46;;;;;;;13.30;7.50;;;;;;;5.78;78.70;98475.90;78567;1297;3052575;-62
2023/12/02 02:11:13;;;;;;;12.80;7.80;;;;;;;5.84;79.36;98479.22;79740;1298;3013354;-62
2023/12/02 02:13:39;;;;;;;12.90;8.20;;;;;;;5.70;79.19;98483.64;79652;1298;3011922;-62
2023/12/02 02:16:08;;;;;;;12.70;8.20;;;;;;;5.51;78.93;98487.66;78420;1295;3026500;-63
2023/12/02 02:18:38;;;;;;;15.40;8.40;;;;;;;5.34;79.06;98480.95;79684;1296;3013578;-61
2023/12/02 02:21:06;;;;;;;12.50;8.40;;;;;;;5.11;79.42;98473.80;78310;1298;3050207;-61
2023/12/02 02:23:33;;;;;;;16.50;9.70;;;;;;;4.94;79.90;98470.24;79837;1298;3013298;-61
2023/12/02 02:26:00;;;;;;;16.50;9.30;;;;;;;4.79;80.49;98479.05;79855;1295;3011633;-64
2023/12/02 02:28:28;;;;;;;13.40;9.10;;;;;;;4.72;81.17;98484.56;78460;1295;3051237;-61
2023/12/02 02:30:55;;;;;;;14.20;9.80;;;;;;;4.64;81.40;98490.54;79878;1295;3014567;-64
2023/12/02 02:33:22;;;;;;;15.10;8.00;;;;;;;4.67;82.06;98490.58;79688;1298;3011592;-63
2023/12/02 02:35:50;;;;;;;11.70;7.80;;;;;;;5.19;80.83;98491.61;78595;1308;3027490;-61
2023/12/02 02:38:17;;;;;;;13.20;8.30;;;;;;;5.78;78.96;98500.25;79798;1297;3013006;-62
2023/12/02 02:40:44;;;;;;;12.60;8.40;;;;;;;5.91;78.10;98503.15;79802;1298;3013568;-61
2023/12/02 02:43:12;;;;;;;15.30;9.80;;;;;;;5.57;77.89;98495.13;78570;1298;3028203;-60
2023/12/02 02:45:39;;;;;;;14.20;9.00;;;;;;;5.41;79.07;98495.80;79655;1296;3013969;-64
2023/12/02 02:48:06;;;;;;;16.30;9.60;;;;;;;5.34;79.73;98496.23;79823;1296;3013102;-63
2023/12/02 02:50:35;;;;;;;16.80;10.30;;;;;;;5.15;80.09;98499.48;78614;1296;3050108;-61
2023/12/02 02:53:02;;;;;;;16.80;10.30;;;;;;;5.00;80.70;98512.08;79666;1298;3012891;-62
2023/12/02 02:55:29;;;;;;;15.20;10.40;;;;;;;4.90;81.29;98519.93;79692;1297;3012008;-62
2023/12/02 02:57:57;;;;;;;16.20;9.80;;;;;;;4.72;81.67;98519.30;78433;1298;3051358;-60
2023/12/02 03:00:24;;;;;;;16.90;10.20;;;;;;;4.68;82.36;98523.14;79929;1298;3013100;-62
2023/12/02 03:02:51;;;;;;;18.40;10.70;;;;;;;4.70;82.44;98517.66;79700;1298;3011743;-63
2023/12/02 03:05:19;;;;;;;11.20;7.80;;;;;;;4.61;82.41;98515.36;78385;1298;3026349;-63
2023/12/02 03:07:45;;;;;;;13.20;8.40;;;;;;;5.02;81.66;98510.94;79872;1298;3018502;-62
2023/12/02 03:10:12;;;;;;;12.70;8.10;;;;;;;5.58;79.89;98511.26;79860;1295;3011476;-62
2023/12/02 03:12:40;;;;;;;11.60;7.60;;;;;;;5.72;79.53;98511.33;78509;1295;3024749;-62
2023/12/02 03:15:08;;;;;;;11.00;7.70;;;;;;;5.71;79.31;98506.53;79660;1295;3012877;-63
2023/12/02 03:17:34;;;;;;;11.50;8.10;;;;;;;5.60;79.13;98507.65;79612;1295;3011573;-64
2023/12/02 03:20:05;;;;;;;12.80;9.00;;;;;;;5.36;79.27;98511.22;78572;1297;3028310;-63
2023/12/02 03:22:32;;;;;;;12.90;8.30;;;;;;;5.14;79.99;98516.40;79799;1298;3012935;-63
2023/12/02 03:25:01;;;;;;;14.00;8.70;;;;;;;4.99;80.60;98516.84;79115;1298;3013209;-62
2023/12/02 03:27:29;;;;;;;13.50;8.60;;;;;;;4.90;80.91;98523.92;79946;1297;3013035;-61
2023/12/02 03:29:55;;;;;;;14.10;8.70;;;;;;;4.81;81.07;98528.02;79780;1294;3011698;-62
2023/12/02 03:32:24;;;;;;;13.90;8.90;;;;;;;4.78;81.47;98534.77;78529;1298;3049143;-62
2023/12/02 03:34:51;;;;;;;13.70;8.80;;;;;;;4.72;81.51;98534.59;79707;1297;3012715;-63
2023/12/02 03:37:18;;;;;;;13.40;8.90;;;;;;;4.62;81.84;98547.41;79832;1298;3011898;-61
2023/12/02 03:39:46;;;;;;;12.80;7.50;;;;;;;4.57;82.35;98549.17;78410;1298;3051841;-60
2023/12/02 03:42:13;;;;;;;11.50;7.50;;;;;;;5.07;81.64;98550.59;79816;1295;3012051;-62
2023/12/02 03:44:40;;;;;;;12.00;7.80;;;;;;;5.72;79.91;98550.10;79732;1295;3011435;-61
2023/12/02 03:47:08;;;;;;;12.70;8.00;;;;;;;5.85;79.12;98541.36;78384;1295;3028470;-63
2023/12/02 03:49:35;;;;;;;11.80;8.00;;;;;;;5.70;78.81;98536.99;79786;1298;3013007;-62
2023/12/02 03:52:01;;;;;;;12.60;7.90;;;;;;;5.58;79.13;98532.94;79791;1295;3012817;-63
2023/12/02 03:54:29;;;;;;;12.70;8.30;;;;;;;5.34;79.35;98536.83;78597;1297;3029938;-62
2023/12/02 03:56:57;;;;;;;12.80;8.50;;;;;;;5.14;80.15;98537.40;79650;1297;3013677;-63
2023/12/02 03:59:24;;;;;;;13.30;9.40;;;;;;;5.00;80.74;98531.02;79681;1298;3011435;-61
2023/12/02 04:01:52;;;;;;;12.80;8.40;;;;;;;4.87;81.27;98520.44;78436;1298;3048496;-62
2023/12/02 04:04:18;;;;;;;13.20;9.00;;;;;;;4.78;81.83;98521.58;79756;1298;3012930;-62
2023/12/02 04:06:45;;;;;;;15.20;9.80;;;;;;;4.65;82.25;98529.89;79572;1298;3011749;-63
2023/12/02 04:09:16;;;;;;;12.70;7.30;;;;;;;4.60;82.71;98538.48;78449;1297;3029110;-61
2023/12/02 04:11:46;;;;;;;12.60;8.40;;;;;;;5.05;82.14;98546.38;79768;1297;3012386;-62
2023/12/02 04:14:14;;;;;;;13.40;7.90;;;;;;;5.65;80.15;98565.96;78487;1298;3050967;-63
2023/12/02 04:16:42;;;;;;;14.20;7.70;;;;;;;5.80;79.65;98564.08;79818;1296;3014786;-62
2023/12/02 04:19:09;;;;;;;10.60;7.90;;;;;;;5.68;79.40;98564.51;79610;1294;3011516;-63
2023/12/02 04:21:41;;;;;;;12.10;7.90;;;;;;;5.63;79.97;98569.88;78688;1295;3049287;-63
2023/12/02 04:24:09;;;;;;;13.20;8.70;;;;;;;5.36;79.72;98586.91;79710;1294;3011604;-65
2023/12/02 04:26:37;;;;;;;13.00;8.80;;;;;;;5.19;80.26;98585.05;78446;1294;3050585;-61
2023/12/02 04:29:04;;;;;;;13.70;8.90;;;;;;;5.09;80.74;98564.73;79943;1295;3015436;-61
2023/12/02 04:31:32;;;;;;;14.30;8.90;;;;;;;4.97;81.14;98558.59;79609;1298;3011370;-61
2023/12/02 04:34:00;;;;;;;14.30;9.40;;;;;;;4.79;81.63;98554.48;78476;1293;3049302;-63
2023/12/02 04:36:26;;;;;;;14.10;9.00;;;;;;;4.76;81.90;98550.50;79746;1298;3013380;-62
2023/12/02 04:38:53;;;;;;;15.40;9.50;;;;;;;4.71;82.01;98542.07;79745;1297;3011452;-61
2023/12/02 04:41:21;;;;;;;13.40;8.00;;;;;;;4.68;82.02;98536.11;78577;1298;3028351;-61
2023/12/02 04:43:48;;;;;;;13.30;9.00;;;;;;;5.11;81.55;98532.15;79618;1296;3014848;-60
2023/12/02 04:46:15;;;;;;;13.00;8.70;;;;;;;5.74;80.36;98532.95;79532;1298;3012894;-61
2023/12/02 04:48:43;;;;;;;12.60;8.40;;;;;;;5.90;79.59;98525.60;78671;1298;3026471;-62
2023/12/02 04:51:10;;;;;;;14.50;9.20;;;;;;;5.76;79.50;98525.02;79779;1296;3012863;-60
2023/12/02 04:53:37;;;;;;;13.80;9.20;;;;;;;5.56;79.69;98532.52;79604;1298;3011695;-60
2023/12/02 04:56:05;;;;;;;14.40;9.10;;;;;;;5.39;80.02;98535.21;77144;1298;3606702;-60
2023/12/02 04:58:33;;;;;;;15.70;9.90;;;;;;;5.05;80.51;98542.23;78470;1298;3051766;-59
2023/12/02 05:01:02;;;;;;;15.90;10.40;;;;;;;4.98;81.45;98551.24;79743;1296;3013713;-60
2023/12/02 05:03:28;;;;;;;14.40;9.50;;;;;;;4.97;81.24;98555.30;79877;1295;3011749;-62
2023/12/02 05:05:57;;;;;;;14.20;8.80;;;;;;;4.87;81.17;98546.77;78455;1297;3050306;-60
2023/12/02 05:08:23;;;;;;;14.00;9.00;;;;;;;4.75;81.11;98549.33;79777;1295;3012925;-65
2023/12/02 05:10:51;;;;;;;14.00;9.60;;;;;;;4.53;81.82;98560.52;79574;1295;3013232;-60
2023/12/02 05:13:19;;;;;;;12.80;7.40;;;;;;;4.32;83.00;98579.70;78504;1298;3027462;-61
2023/12/02 05:15:46;;;;;;;13.80;8.20;;;;;;;4.79;82.45;98584.66;79717;1294;3013992;-61
2023/12/02 05:18:12;;;;;;;12.80;8.10;;;;;;;5.22;80.61;98577.08;79863;1295;3011495;-63
2023/12/02 05:20:40;;;;;;;11.90;7.60;;;;;;;5.43;80.36;98570.79;78692;1293;3025920;-62
2023/12/02 05:23:07;;;;;;;12.00;7.40;;;;;;;5.48;80.52;98566.65;80004;1298;3012884;-63
2023/12/02 05:25:34;;;;;;;12.60;7.40;;;;;;;5.38;80.36;98564.60;79664;1295;3011886;-63
2023/12/02 05:28:02;;;;;;;12.40;8.30;;;;;;;5.21;80.07;98565.85;78619;1298;3030260;-63
2023/12/02 05:30:29;;;;;;;12.00;8.30;;;;;;;4.96;80.56;98566.77;79677;1298;3018475;-60
2023/12/02 05:32:56;;;;;;;13.50;8.60;;;;;;;4.90;81.10;98576.50;79805;1296;3011622;-64
2023/12/02 05:35:24;;;;;;;13.90;9.00;;;;;;;4.80;81.34;98567.29;78371;1298;3026601;-60
2023/12/02 05:37:52;;;;;;;16.80;8.70;;;;;;;4.69;81.81;98572.36;79606;1298;3013168;-61
2023/12/02 05:40:19;;;;;;;16.40;10.00;;;;;;;4.58;82.34;98585.02;79844;1298;3012232;-62
2023/12/02 05:42:47;;;;;;;16.90;11.10;;;;;;;4.43;83.04;98589.24;78452;1295;3050963;-60
2023/12/02 05:45:14;;;;;;;13.80;7.50;;;;;;;4.37;83.50;98592.16;79754;1296;3013374;-60
2023/12/02 05:47:41;;;;;;;14.80;9.90;;;;;;;4.91;83.14;98585.30;79581;1295;3011770;-61
2023/12/02 05:50:09;;;;;;;13.50;8.50;;;;;;;5.56;80.85;98587.44;78617;1298;3049849;-59
2023/12/02 05:52:36;;;;;;;13.70;8.80;;;;;;;5.68;79.91;98581.04;79924;1298;3013376;-62
2023/12/02 05:55:04;;;;;;;15.50;9.20;;;;;;;5.60;79.82;98585.98;79813;1295;3012259;-62
2023/12/02 05:57:32;;;;;;;11.30;7.90;;;;;;;5.44;80.05;98590.34;78836;1295;3050371;-62
2023/12/02 05:59:59;;;;;;;13.70;9.30;;;;;;;5.32;80.45;98590.46;79790;1294;3012628;-60
2023/12/02 06:02:26;;;;;;;14.60;9.90;;;;;;;5.20;80.78;98587.96;79454;1294;3011818;-62
2023/12/02 06:04:54;;;;;;;17.70;10.40;;;;;;;5.04;80.93;98585.46;78300;1297;3050028;-62
2023/12/02 06:07:21;;;;;;;14.60;9.50;;;;;;;4.82;81.48;98576.18;79601;1295;3013614;-62
2023/12/02 06:09:48;;;;;;;15.30;9.60;;;;;;;4.78;82.01;98572.77;79564;1297;3013112;-62
2023/12/02 06:12:16;;;;;;;13.40;8.70;;;;;;;4.70;82.15;98563.77;78343;1294;3025494;-60
2023/12/02 06:14:43;;;;;;;14.70;9.30;;;;;;;4.65;82.18;98567.86;79630;1298;3012764;-60
2023/12/02 06:17:09;;;;;;;12.30;7.60;;;;;;;4.52;82.74;98581.32;79594;1298;3013537;-62
2023/12/02 06:19:38;;;;;;;10.50;7.40;;;;;;;4.95;82.40;98585.23;78515;1296;3026499;-62
2023/12/02 06:22:04;;;;;;;14.80;8.20;;;;;;;5.50;80.44;98588.43;79789;1298;3012802;-64
2023/12/02 06:24:31;;;;;;;13.20;8.40;;;;;;;5.75;80.26;98584.17;79661;1298;3011685;-63
2023/12/02 06:26:59;;;;;;;13.50;8.20;;;;;;;5.68;79.91;98601.73;78346;1298;3026464;-63
2023/12/02 06:29:26;;;;;;;12.40;8.30;;;;;;;5.59;80.06;98602.91;79822;1295;3018747;-62
2023/12/02 06:31:53;;;;;;;14.70;9.30;;;;;;;5.42;80.09;98603.29;79939;1294;3012964;-61
2023/12/02 06:34:21;;;;;;;15.70;10.50;;;;;;;5.25;80.34;98617.23;78401;1297;3049342;-63
2023/12/02 06:36:48;;;;;;;15.40;9.80;;;;;;;5.06;80.95;98625.11;79802;1298;3012914;-62
2023/12/02 06:39:15;;;;;;;19.30;10.60;;;;;;;4.98;81.43;98627.78;79739;1295;3012887;-63
2023/12/02 06:41:44;;;;;;;14.20;10.20;;;;;;;4.94;81.50;98636.86;78708;1298;3027507;-61
2023/12/02 06:44:10;;;;;;;14.60;9.60;;;;;;;4.93;81.83;98640.57;79982;1297;3012991;-63
2023/12/02 06:46:38;;;;;;;14.90;10.50;;;;;;;4.82;82.10;98639.02;79710;1293;3011674;-61
2023/12/02 06:49:06;;;;;;;12.10;7.40;;;;;;;4.77;82.31;98638.24;78539;1298;3049720;-65
2023/12/02 06:51:33;;;;;;;13.00;8.10;;;;;;;5.20;81.57;98637.60;79865;1297;3013487;-63
2023/12/02 06:54:00;;;;;;;12.10;7.90;;;;;;;5.82;79.81;98628.45;79715;1295;3011910;-64
2023/12/02 06:56:29;;;;;;;10.10;7.00;;;;;;;6.00;78.79;98613.05;78576;1295;3051322;-64
2023/12/02 06:58:56;;;;;;;12.10;7.50;;;;;;;5.90;78.56;98619.48;79683;1295;3013599;-63
2023/12/02 07:01:26;;;;;;;11.70;6.80;;;;;;;5.55;78.79;98628.65;79643;1293;3011953;-62
2023/12/02 07:03:55;;;;;;;9.90;6.90;;;;;;;5.34;79.07;98634.63;78436;1296;3049986;-60
2023/12/02 07:06:22;;;;;;;9.80;6.60;;;;;;;5.21;79.54;98632.19;79649;1297;3012779;-63
2023/12/02 07:08:49;;;;;;;11.70;7.20;;;;;;;4.99;80.03;98630.36;79752;1298;3011813;-63
2023/12/02 07:11:18;;;;;;;11.70;7.30;;;;;;;4.89;80.67;98641.62;78469;1296;3052250;-63
2023/12/02 07:13:44;;;;;;;10.70;7.60;;;;;;;4.83;81.18;98642.59;79704;1295;3016014;-62
2023/12/02 07:16:11;;;;;;;11.90;6.80;;;;;;;4.71;81.64;98629.86;79759;1294;3011780;-62
2023/12/02 07:18:39;;;;;;;11.50;7.30;;;;;;;4.68;81.88;98627.23;78317;1298;3048357;-61
2023/12/02 07:21:10;;;;;;;9.50;6.90;;;;;;;4.68;82.12;98629.31;79581;1295;3013216;-62
2023/12/02 07:23:38;;;;;;;7.10;4.70;;;;;;;4.63;82.22;98623.30;78502;1294;3069046;-61
2023/12/02 07:26:05;;;;;;;8.40;5.50;;;;;;;5.09;81.58;98621.48;79867;1295;3018738;-62
2023/12/02 07:28:32;;;;;;;7.70;5.60;;;;;;;5.74;79.52;98621.04;79725;1295;3011427;-61
2023/12/02 07:31:00;;;;;;;9.40;5.50;;;;;;;5.68;78.45;98607.66;78616;1296;3028787;-62
2023/12/02 07:33:27;;;;;;;8.50;5.30;;;;;;;5.46;78.92;98606.23;79736;1298;3013006;-63
2023/12/02 07:35:54;;;;;;;7.70;5.30;;;;;;;5.26;79.45;98615.07;79783;1295;3011754;-62
2023/12/02 07:38:22;;;;;;;8.10;5.50;;;;;;;5.06;80.41;98620.28;78680;1295;3027529;-62
2023/12/02 07:40:49;;;;;;;8.40;5.60;;;;;;;4.83;81.34;98616.05;79580;1297;3013674;-63
2023/12/02 07:43:15;;;;;;;7.70;5.50;;;;;;;4.70;81.97;98604.58;79746;1294;3012649;-64
2023/12/02 07:45:43;;;;;;;7.10;5.00;;;;;;;4.63;82.28;98603.88;78869;1297;3027909;-64
2023/12/02 07:48:10;;;;;;;8.40;5.90;;;;;;;4.42;82.88;98604.88;79850;1298;3013699;-64
2023/12/02 07:50:38;;;;;;;8.90;5.90;;;;;;;4.30;84.09;98599.08;79737;1295;3011562;-62
2023/12/02 07:53:06;;;;;;;9.40;5.50;;;;;;;4.24;84.64;98597.80;78522;1298;3069008;-62
2023/12/02 07:55:33;;;;;;;5.90;4.20;;;;;;;4.23;84.79;98600.10;79584;1297;3013270;-65
2023/12/02 07:58:00;;;;;;;5.60;4.00;;;;;;;4.80;83.78;98599.91;79644;1294;3011839;-63
2023/12/02 08:00:28;;;;;;;6.00;3.90;;;;;;;5.43;81.26;98605.48;78481;1298;3026323;-64
2023/12/02 08:02:55;;;;;;;5.90;4.10;;;;;;;5.46;80.18;98598.23;79830;1295;3019084;-64
2023/12/02 08:05:22;;;;;;;6.50;4.50;;;;;;;5.29;80.36;98596.02;79933;1298;3013314;-63
2023/12/02 08:07:51;;;;;;;7.10;4.30;;;;;;;5.33;80.70;98604.27;78692;1294;3026544;-65
2023/12/02 08:10:17;;;;;;;5.60;4.00;;;;;;;5.21;80.90;98620.00;79690;1294;3012944;-63
2023/12/02 08:12:44;;;;;;;6.30;4.40;;;;;;;5.24;81.01;98623.30;79635;1295;3011922;-64
2023/12/02 08:15:12;;;;;;;6.40;4.80;;;;;;;5.01;80.94;98622.27;78395;1298;3052827;-66
2023/12/02 08:17:39;;;;;;;10.00;4.40;;;;;;;4.89;81.49;98630.84;79712;1298;3013567;-63
2023/12/02 08:20:08;;;;;;;6.90;4.70;;;;;;;4.84;81.85;98618.59;79755;1294;3013106;-64
2023/12/02 08:22:36;;;;;;;6.70;4.10;;;;;;;4.77;82.07;98627.64;78684;1298;3068370;-65
2023/12/02 08:25:04;;;;;;;8.70;4.80;;;;;;;4.62;82.46;98635.14;79747;1298;3013443;-63
2023/12/02 08:27:31;;;;;;;5.60;3.50;;;;;;;4.58;83.29;98624.76;79859;1295;3011695;-61
2023/12/02 08:29:59;;;;;;;5.70;3.80;;;;;;;5.03;82.29;98620.09;78445;1296;3052520;-62
2023/12/02 08:32:26;;;;;;;5.40;3.90;;;;;;;5.69;80.37;98614.04;79827;1297;3013491;-64
2023/12/02 08:34:53;;;;;;;5.20;3.60;;;;;;;5.81;79.25;98621.70;79891;1298;3013273;-66
2023/12/02 08:37:21;;;;;;;6.30;4.20;;;;;;;5.61;79.15;98615.84;78674;1295;3026503;-64
2023/12/02 08:39:48;;;;;;;7.50;4.70;;;;;;;5.42;79.89;98612.36;79563;1295;3013436;-64
2023/12/02 08:42:15;;;;;;;7.90;4.70;;;;;;;5.43;80.30;98619.20;79682;1294;3011622;-66
2023/12/02 08:44:43;;;;;;;6.10;4.70;;;;;;;5.32;80.34;98628.98;78711;1298;3025959;-65
2023/12/02 08:47:10;;;;;;;9.20;5.30;;;;;;;5.07;80.73;98632.70;79739;1295;3013056;-63
2023/12/02 08:49:37;;;;;;;8.70;4.70;;;;;;;5.08;80.89;98622.92;79730;1298;3011430;-63
2023/12/02 08:52:05;;;;;;;6.10;4.20;;;;;;;5.07;80.74;98626.12;78540;1295;3028472;-61
2023/12/02 08:54:32;;;;;;;7.20;4.60;;;;;;;4.99;80.94;98609.01;79873;1295;3013659;-62
2023/12/02 08:56:59;;;;;;;8.10;4.50;;;;;;;4.83;81.51;98608.56;79865;1295;3011835;-65
2023/12/02 08:59:27;;;;;;;7.40;4.80;;;;;;;4.81;81.57;98604.18;78430;1298;3052271;-62
2023/12/02 09:01:54;;;;;;;9.00;4.50;;;;;;;4.80;81.80;98604.05;79935;1298;3018566;-66
2023/12/02 09:04:21;;;;;;;8.60;4.40;;;;;;;5.24;80.99;98597.28;79789;1298;3011889;-64
2023/12/02 09:06:49;;;;;;;8.30;4.30;;;;;;;5.88;79.68;98586.56;78717;1295;3026650;-64
2023/12/02 09:09:16;;;;;;;5.50;3.90;;;;;;;6.12;78.84;98595.52;79697;1295;3013625;-63
2023/12/02 09:11:42;;;;;;;6.70;3.90;;;;;;;6.02;78.06;98592.59;79790;1296;3013067;-62
2023/12/02 09:14:11;;;;;;;5.60;4.20;;;;;;;5.90;78.21;98590.98;78433;1295;3028034;-64
2023/12/02 09:16:46;;;;;;;6.70;4.30;;;;;;;5.72;78.40;98602.59;79902;1298;3013498;-65
2023/12/02 09:19:29;;;;;;;7.10;4.40;;;;;;;5.59;79.23;98595.11;78679;1295;3053900;-61
2023/12/02 09:21:57;;;;;;;7.80;5.30;;;;;;;5.46;79.26;98581.04;78708;1295;3068478;-62
2023/12/02 09:24:34;;;;;;;6.50;4.40;;;;;;;5.30;79.73;98579.09;80049;1294;3013600;-62
2023/12/02 09:27:06;;;;;;;6.20;4.30;;;;;;;5.31;80.05;98584.06;78768;1295;3048580;-63
2023/12/02 09:29:37;;;;;;;6.40;4.50;;;;;;;5.22;80.14;98594.59;79718;1295;3013179;-64
2023/12/02 09:32:52;;;;;;;6.60;4.50;;;;;;;5.14;80.24;98581.00;78481;1298;3050221;-64
2023/12/02 09:35:20;;;;;;;7.20;5.00;;;;;;;4.97;80.87;98565.70;78542;1298;3052433;-63
2023/12/02 09:37:55;;;;;;;9.00;4.90;;;;;;;4.97;81.23;98565.23;79728;1298;3013567;-63
2023/12/02 09:40:23;;;;;;;7.80;4.40;;;;;;;4.90;81.38;98572.32;78483;1295;3051020;-65
2023/12/02 09:42:56;;;;;;;9.40;5.30;;;;;;;5.43;81.12;98562.58;79681;1294;3014013;-65
2023/12/02 09:45:27;;;;;;;10.50;5.00;;;;;;;5.97;78.96;98566.29;78683;1295;3052658;-68
2023/12/02 09:48:06;;;;;;;7.80;4.90;;;;;;;6.10;78.07;98570.23;79565;1295;3011633;-63
2023/12/02 09:50:40;;;;;;;7.20;4.60;;;;;;;5.82;78.41;98566.41;78635;1298;3051941;-65
2023/12/02 09:53:33;;;;;;;7.30;4.80;;;;;;;5.63;79.23;98559.96;79876;1298;3011780;-65
2023/12/02 09:56:04;;;;;;;7.40;3.70;;;;;;;5.29;80.21;98558.97;78320;1298;3068596;-66
2023/12/02 09:58:37;;;;;;;8.50;4.20;;;;;;;5.19;81.05;98553.45;79733;1295;3013493;-63
2023/12/02 10:01:38;;;;;;;6.90;4.30;;;;;;;4.98;81.68;98555.21;78320;1298;3057238;-64
2023/12/02 10:04:23;;;;;;;6.30;4.10;;;;;;;4.90;82.56;98570.44;78447;1298;3049890;-66
2023/12/02 10:07:30;;;;;;;6.30;4.40;;;;;;;4.96;82.69;98560.71;78483;1294;3053420;-68
2023/12/02 10:10:10;;;;;;;9.10;4.60;;;;;;;4.78;83.05;98551.60;78399;1295;3049519;-65
2023/12/02 10:12:55;;;;;;;5.60;3.20;;;;;;;4.79;83.67;98543.90;78778;1298;3052253;-67
2023/12/02 10:15:27;;;;;;;6.80;4.20;;;;;;;5.51;81.80;98553.48;78647;1295;3055194;-71
2023/12/02 10:18:13;;;;;;;5.20;3.90;;;;;;;6.00;79.80;98555.16;79872;1295;3011513;-67
2023/12/02 10:20:42;;;;;;;4.60;3.40;;;;;;;5.91;79.15;98556.48;78287;1298;3051525;-66
2023/12/02 10:23:31;;;;;;;5.90;3.80;;;;;;;5.79;79.38;98552.29;79705;1298;3013237;-64
2023/12/02 10:26:11;;;;;;;5.30;3.80;;;;;;;5.62;80.08;98556.71;78690;1294;3053477;-64
2023/12/02 10:28:45;;;;;;;4.90;3.90;;;;;;;5.46;80.55;98567.66;78701;1295;3050641;-68
2023/12/02 10:31:25;;;;;;;5.80;4.30;;;;;;;5.24;81.33;98567.79;79739;1294;3013241;-67
2023/12/02 10:34:17;;;;;;;6.20;4.10;;;;;;;5.16;81.94;98574.28;78559;1296;3051173;-66
2023/12/02 10:36:48;;;;;;;6.20;4.90;;;;;;;4.91;82.54;98572.25;78915;1294;3069529;-66
2023/12/02 10:39:20;;;;;;;7.60;4.60;;;;;;;4.79;83.25;98570.44;80187;1295;3011621;-61
2023/12/02 10:42:03;;;;;;;6.70;4.50;;;;;;;4.72;84.20;98571.16;78784;1295;3056471;-61
2023/12/02 10:44:33;;;;;;;8.10;3.70;;;;;;;4.56;84.96;98554.47;79152;1293;3049197;-63
2023/12/02 10:47:00;;;;;;;7.40;3.90;;;;;;;5.01;84.74;98537.02;79636;1298;3012983;-66
2023/12/02 10:49:30;;;;;;;5.90;4.30;;;;;;;5.56;82.14;98544.36;79453;1297;3011993;-67
2023/12/02 10:51:58;;;;;;;7.10;3.90;;;;;;;5.72;81.47;98544.69;79809;1300;3013094;-70
2023/12/02 10:54:31;;;;;;;9.00;5.00;;;;;;;5.45;81.33;98552.38;78842;1295;3011845;-61
2023/12/02 10:57:08;;;;;;;7.00;4.40;;;;;;;5.24;82.61;98559.44;79908;1295;3011623;-61
2023/12/02 10:59:49;;;;;;;6.80;5.00;;;;;;;5.14;83.18;98559.27;79033;1294;3050612;-62
2023/12/02 11:02:31;;;;;;;7.10;4.90;;;;;;;4.97;83.59;98555.28;78375;1298;3056946;-64
2023/12/02 11:05:28;;;;;;;11.10;5.80;;;;;;;4.82;84.61;98554.50;78268;1298;3049506;-64
2023/12/02 11:08:15;;;;;;;7.80;5.30;;;;;;;4.68;85.30;98553.66;78454;1298;3053677;-63
2023/12/02 11:10:45;;;;;;;9.50;5.60;;;;;;;4.55;86.17;98556.92;78283;1299;3050910;-62
2023/12/02 11:13:15;;;;;;;9.70;4.60;;;;;;;4.44;87.14;98563.02;79586;1295;3012031;-64
2023/12/02 11:16:17;;;;;;;11.30;5.30;;;;;;;5.01;86.25;98559.27;78667;1295;3051596;-64
2023/12/02 11:18:54;;;;;;;6.80;4.50;;;;;;;5.52;83.88;98561.56;78275;1295;3069098;-64
2023/12/02 11:21:48;;;;;;;8.60;4.50;;;;;;;5.59;83.36;98561.20;78418;1295;3052241;-64
2023/12/02 11:24:30;;;;;;;8.60;4.70;;;;;;;5.49;83.36;98563.31;78318;1298;3055677;-62
2023/12/02 11:27:40;;;;;;;6.80;4.60;;;;;;;5.35;83.62;98567.73;78380;1298;3049702;-63
2023/12/02 11:30:17;;;;;;;10.50;5.60;;;;;;;5.16;84.22;98573.22;78274;1298;3052376;-64